sensor_id;sensor_type;location;lat;lon;timestamp;temperature;humidity
31975;DHT22;18500;43.618;1.474;2023-12-28T00:01:08;4.90;99.00
31975;DHT22;18500;43.618;1.474;2023-12-28T00:03:34;4.90;98.20
31975;DHT22;18500;43.618;1.474;2023-12-28T00:05:59;4.90;99.00
31975;DHT22;18500;43.618;1.474;2023-12-28T00:08:25;4.90;99.90
31975;DHT22;18500;43.618;1.474;2023-12-28T00:10:51;4.90;99.90
31975;DHT22;18500;43.618;1.474;2023-12-28T00:13:17;4.90;98.40
31975;DHT22;18500;43.618;1.474;2023-12-28T00:15:42;4.80;97.10
31975;DHT22;18500;43.618;1.474;2023-12-28T00:18:08;4.80;97.70
31975;DHT22;18500;43.618;1.474;2023-12-28T00:20:34;4.80;96.80
31975;DHT22;18500;43.618;1.474;2023-12-28T00:22:59;4.70;95.70
31975;DHT22;18500;43.618;1.474;2023-12-28T00:25:25;4.70;96.60
31975;DHT22;18500;43.618;1.474;2023-12-28T00:27:51;4.60;96.50
31975;DHT22;18500;43.618;1.474;2023-12-28T00:30:17;4.60;96.80
31975;DHT22;18500;43.618;1.474;2023-12-28T00:32:45;4.90;97.20
31975;DHT22;18500;43.618;1.474;2023-12-28T00:35:11;4.80;95.70
31975;DHT22;18500;43.618;1.474;2023-12-28T00:37:37;4.80;96.00
31975;DHT22;18500;43.618;1.474;2023-12-28T00:40:03;4.80;97.10
31975;DHT22;18500;43.618;1.474;2023-12-28T00:42:29;4.70;96.00
31975;DHT22;18500;43.618;1.474;2023-12-28T00:44:54;4.60;96.70
31975;DHT22;18500;43.618;1.474;2023-12-28T00:47:20;4.60;97.70
31975;DHT22;18500;43.618;1.474;2023-12-28T00:49:46;4.60;98.60
31975;DHT22;18500;43.618;1.474;2023-12-28T00:52:11;4.50;98.10
31975;DHT22;18500;43.618;1.474;2023-12-28T00:54:37;4.50;98.80
31975;DHT22;18500;43.618;1.474;2023-12-28T00:57:03;4.50;98.70
31975;DHT22;18500;43.618;1.474;2023-12-28T00:59:29;4.40;98.20
31975;DHT22;18500;43.618;1.474;2023-12-28T01:01:58;4.30;95.60
31975;DHT22;18500;43.618;1.474;2023-12-28T01:04:23;4.30;95.10
31975;DHT22;18500;43.618;1.474;2023-12-28T01:06:49;4.20;96.30
31975;DHT22;18500;43.618;1.474;2023-12-28T01:09:15;4.20;97.00
31975;DHT22;18500;43.618;1.474;2023-12-28T01:11:41;4.20;96.90
31975;DHT22;18500;43.618;1.474;2023-12-28T01:14:06;4.20;97.60
31975;DHT22;18500;43.618;1.474;2023-12-28T01:16:32;4.30;99.00
31975;DHT22;18500;43.618;1.474;2023-12-28T01:18:58;4.20;97.30
31975;DHT22;18500;43.618;1.474;2023-12-28T01:21:23;4.10;96.00
31975;DHT22;18500;43.618;1.474;2023-12-28T01:23:51;4.30;99.40
31975;DHT22;18500;43.618;1.474;2023-12-28T01:26:16;4.30;99.90
31975;DHT22;18500;43.618;1.474;2023-12-28T01:28:45;4.20;99.90
31975;DHT22;18500;43.618;1.474;2023-12-28T01:31:10;4.10;99.90
31975;DHT22;18500;43.618;1.474;2023-12-28T01:33:36;4.10;99.90
31975;DHT22;18500;43.618;1.474;2023-12-28T01:36:02;4.10;99.90
31975;DHT22;18500;43.618;1.474;2023-12-28T01:38:28;4.10;99.90
31975;DHT22;18500;43.618;1.474;2023-12-28T01:40:54;4.00;99.90
31975;DHT22;18500;43.618;1.474;2023-12-28T01:43:19;3.90;99.90
31975;DHT22;18500;43.618;1.474;2023-12-28T01:45:45;4.00;99.90
31975;DHT22;18500;43.618;1.474;2023-12-28T01:48:11;3.90;99.90
31975;DHT22;18500;43.618;1.474;2023-12-28T01:50:38;3.90;99.90
31975;DHT22;18500;43.618;1.474;2023-12-28T01:53:04;3.90;99.90
31975;DHT22;18500;43.618;1.474;2023-12-28T01:55:30;3.90;99.90
31975;DHT22;18500;43.618;1.474;2023-12-28T01:57:57;3.80;99.90
31975;DHT22;18500;43.618;1.474;2023-12-28T02:00:24;4.00;99.90
31975;DHT22;18500;43.618;1.474;2023-12-28T02:02:50;3.90;99.90
31975;DHT22;18500;43.618;1.474;2023-12-28T02:05:17;3.80;99.90
31975;DHT22;18500;43.618;1.474;2023-12-28T02:07:43;3.80;99.90
31975;DHT22;18500;43.618;1.474;2023-12-28T02:10:08;3.80;99.90
31975;DHT22;18500;43.618;1.474;2023-12-28T02:12:34;3.80;99.90
31975;DHT22;18500;43.618;1.474;2023-12-28T02:15:00;3.70;99.90
31975;DHT22;18500;43.618;1.474;2023-12-28T02:17:33;3.70;99.90
31975;DHT22;18500;43.618;1.474;2023-12-28T02:20:02;3.70;99.90
31975;DHT22;18500;43.618;1.474;2023-12-28T02:22:31;3.60;99.90
31975;DHT22;18500;43.618;1.474;2023-12-28T02:25:10;3.60;99.90
31975;DHT22;18500;43.618;1.474;2023-12-28T02:27:47;3.60;99.90
31975;DHT22;18500;43.618;1.474;2023-12-28T02:30:17;3.70;99.90
31975;DHT22;18500;43.618;1.474;2023-12-28T02:32:54;3.70;99.90
31975;DHT22;18500;43.618;1.474;2023-12-28T02:35:43;3.70;99.90
31975;DHT22;18500;43.618;1.474;2023-12-28T02:38:11;3.60;99.90
31975;DHT22;18500;43.618;1.474;2023-12-28T02:40:38;3.50;99.90
31975;DHT22;18500;43.618;1.474;2023-12-28T02:43:08;3.50;99.90
31975;DHT22;18500;43.618;1.474;2023-12-28T02:45:35;3.40;99.90
31975;DHT22;18500;43.618;1.474;2023-12-28T02:48:01;3.40;99.90
31975;DHT22;18500;43.618;1.474;2023-12-28T02:50:26;3.40;99.90
31975;DHT22;18500;43.618;1.474;2023-12-28T02:52:52;3.30;99.90
31975;DHT22;18500;43.618;1.474;2023-12-28T02:55:18;3.30;99.90
31975;DHT22;18500;43.618;1.474;2023-12-28T02:57:44;3.30;99.90
31975;DHT22;18500;43.618;1.474;2023-12-28T03:00:10;3.30;99.90
31975;DHT22;18500;43.618;1.474;2023-12-28T03:02:37;3.30;99.90
31975;DHT22;18500;43.618;1.474;2023-12-28T03:05:07;3.30;99.90
31975;DHT22;18500;43.618;1.474;2023-12-28T03:07:33;3.40;99.90
31975;DHT22;18500;43.618;1.474;2023-12-28T03:09:59;3.40;99.90
31975;DHT22;18500;43.618;1.474;2023-12-28T03:12:25;3.40;99.90
31975;DHT22;18500;43.618;1.474;2023-12-28T03:14:51;3.40;99.90
31975;DHT22;18500;43.618;1.474;2023-12-28T03:17:17;3.40;99.90
31975;DHT22;18500;43.618;1.474;2023-12-28T03:19:42;3.40;99.90
31975;DHT22;18500;43.618;1.474;2023-12-28T03:22:08;3.40;99.90
31975;DHT22;18500;43.618;1.474;2023-12-28T03:24:33;3.40;99.90
31975;DHT22;18500;43.618;1.474;2023-12-28T03:26:59;3.40;99.90
31975;DHT22;18500;43.618;1.474;2023-12-28T03:29:25;3.30;99.90
31975;DHT22;18500;43.618;1.474;2023-12-28T03:31:51;3.20;99.90
31975;DHT22;18500;43.618;1.474;2023-12-28T03:34:16;3.10;99.90
31975;DHT22;18500;43.618;1.474;2023-12-28T03:36:42;3.20;99.90
31975;DHT22;18500;43.618;1.474;2023-12-28T03:39:08;3.10;99.90
31975;DHT22;18500;43.618;1.474;2023-12-28T03:41:34;3.00;99.90
31975;DHT22;18500;43.618;1.474;2023-12-28T03:44:00;3.10;99.90
31975;DHT22;18500;43.618;1.474;2023-12-28T03:46:26;3.10;99.90
31975;DHT22;18500;43.618;1.474;2023-12-28T03:48:52;3.00;99.90
31975;DHT22;18500;43.618;1.474;2023-12-28T03:51:18;3.00;99.90
31975;DHT22;18500;43.618;1.474;2023-12-28T03:53:44;3.00;99.90
31975;DHT22;18500;43.618;1.474;2023-12-28T03:56:23;3.10;99.90
31975;DHT22;18500;43.618;1.474;2023-12-28T03:58:49;3.10;99.90
31975;DHT22;18500;43.618;1.474;2023-12-28T04:01:17;3.10;99.90
31975;DHT22;18500;43.618;1.474;2023-12-28T04:03:43;3.10;99.90
31975;DHT22;18500;43.618;1.474;2023-12-28T04:06:09;3.10;99.90
31975;DHT22;18500;43.618;1.474;2023-12-28T04:08:34;3.10;99.90
31975;DHT22;18500;43.618;1.474;2023-12-28T04:11:00;3.10;99.90
31975;DHT22;18500;43.618;1.474;2023-12-28T04:13:26;3.10;99.90
31975;DHT22;18500;43.618;1.474;2023-12-28T04:15:51;3.00;99.90
31975;DHT22;18500;43.618;1.474;2023-12-28T04:18:17;3.10;99.90
31975;DHT22;18500;43.618;1.474;2023-12-28T04:20:43;3.10;99.90
31975;DHT22;18500;43.618;1.474;2023-12-28T04:23:10;3.00;99.90
31975;DHT22;18500;43.618;1.474;2023-12-28T04:25:36;3.00;99.90
31975;DHT22;18500;43.618;1.474;2023-12-28T04:28:02;2.90;99.90
31975;DHT22;18500;43.618;1.474;2023-12-28T04:30:28;2.90;99.90
31975;DHT22;18500;43.618;1.474;2023-12-28T04:32:53;2.80;99.90
31975;DHT22;18500;43.618;1.474;2023-12-28T04:35:19;2.90;99.90
31975;DHT22;18500;43.618;1.474;2023-12-28T04:37:45;3.00;99.90
31975;DHT22;18500;43.618;1.474;2023-12-28T04:40:10;3.00;99.90
31975;DHT22;18500;43.618;1.474;2023-12-28T04:42:36;3.00;99.90
31975;DHT22;18500;43.618;1.474;2023-12-28T04:45:02;3.00;99.90
31975;DHT22;18500;43.618;1.474;2023-12-28T04:47:28;3.10;99.90
31975;DHT22;18500;43.618;1.474;2023-12-28T04:49:53;3.10;99.90
31975;DHT22;18500;43.618;1.474;2023-12-28T04:52:19;3.20;99.90
31975;DHT22;18500;43.618;1.474;2023-12-28T04:54:45;3.20;99.90
31975;DHT22;18500;43.618;1.474;2023-12-28T04:57:11;3.10;99.90
31975;DHT22;18500;43.618;1.474;2023-12-28T04:59:39;3.20;99.90
31975;DHT22;18500;43.618;1.474;2023-12-28T05:02:05;3.10;99.90
31975;DHT22;18500;43.618;1.474;2023-12-28T05:04:31;3.10;99.90
31975;DHT22;18500;43.618;1.474;2023-12-28T05:06:56;3.10;99.90
31975;DHT22;18500;43.618;1.474;2023-12-28T05:09:22;3.10;99.90
31975;DHT22;18500;43.618;1.474;2023-12-28T05:11:48;3.10;99.90
31975;DHT22;18500;43.618;1.474;2023-12-28T05:14:13;3.10;99.90
31975;DHT22;18500;43.618;1.474;2023-12-28T05:16:39;3.20;99.90
31975;DHT22;18500;43.618;1.474;2023-12-28T05:19:04;3.20;99.90
31975;DHT22;18500;43.618;1.474;2023-12-28T05:21:30;3.20;99.90
31975;DHT22;18500;43.618;1.474;2023-12-28T05:23:56;3.20;99.90
31975;DHT22;18500;43.618;1.474;2023-12-28T05:26:21;3.20;99.90
31975;DHT22;18500;43.618;1.474;2023-12-28T05:28:48;3.30;99.90
31975;DHT22;18500;43.618;1.474;2023-12-28T05:31:14;3.30;99.90
31975;DHT22;18500;43.618;1.474;2023-12-28T05:33:39;3.30;99.90
31975;DHT22;18500;43.618;1.474;2023-12-28T05:36:06;3.30;99.90
31975;DHT22;18500;43.618;1.474;2023-12-28T05:38:31;3.40;99.90
31975;DHT22;18500;43.618;1.474;2023-12-28T05:40:57;3.40;99.90
31975;DHT22;18500;43.618;1.474;2023-12-28T05:43:23;3.50;99.90
31975;DHT22;18500;43.618;1.474;2023-12-28T05:45:49;3.60;99.90
31975;DHT22;18500;43.618;1.474;2023-12-28T05:48:14;3.60;99.90
31975;DHT22;18500;43.618;1.474;2023-12-28T05:50:40;3.70;99.90
31975;DHT22;18500;43.618;1.474;2023-12-28T05:53:06;3.80;99.90
31975;DHT22;18500;43.618;1.474;2023-12-28T05:55:31;3.80;99.90
31975;DHT22;18500;43.618;1.474;2023-12-28T05:57:57;3.80;99.90
31975;DHT22;18500;43.618;1.474;2023-12-28T06:00:22;3.80;99.90
31975;DHT22;18500;43.618;1.474;2023-12-28T06:02:48;3.90;99.90
31975;DHT22;18500;43.618;1.474;2023-12-28T06:05:17;3.90;99.90
31975;DHT22;18500;43.618;1.474;2023-12-28T06:07:43;4.00;99.90
31975;DHT22;18500;43.618;1.474;2023-12-28T06:10:09;4.10;99.90
31975;DHT22;18500;43.618;1.474;2023-12-28T06:12:35;4.30;99.90
31975;DHT22;18500;43.618;1.474;2023-12-28T06:15:01;4.30;99.90
31975;DHT22;18500;43.618;1.474;2023-12-28T06:17:28;4.40;99.90
31975;DHT22;18500;43.618;1.474;2023-12-28T06:19:54;4.30;99.90
31975;DHT22;18500;43.618;1.474;2023-12-28T06:22:19;4.30;99.90
31975;DHT22;18500;43.618;1.474;2023-12-28T06:24:45;4.40;99.90
31975;DHT22;18500;43.618;1.474;2023-12-28T06:27:11;4.50;99.90
31975;DHT22;18500;43.618;1.474;2023-12-28T06:29:37;4.40;99.90
31975;DHT22;18500;43.618;1.474;2023-12-28T06:32:03;4.30;99.90
31975;DHT22;18500;43.618;1.474;2023-12-28T06:34:28;4.30;99.60
31975;DHT22;18500;43.618;1.474;2023-12-28T06:36:54;4.20;99.70
31975;DHT22;18500;43.618;1.474;2023-12-28T06:39:20;4.20;99.90
31975;DHT22;18500;43.618;1.474;2023-12-28T06:41:49;4.20;99.90
31975;DHT22;18500;43.618;1.474;2023-12-28T06:44:15;4.10;99.90
31975;DHT22;18500;43.618;1.474;2023-12-28T06:46:41;4.10;99.90
31975;DHT22;18500;43.618;1.474;2023-12-28T06:49:07;4.10;99.90
31975;DHT22;18500;43.618;1.474;2023-12-28T06:51:32;4.10;99.90
31975;DHT22;18500;43.618;1.474;2023-12-28T06:53:58;4.10;99.90
31975;DHT22;18500;43.618;1.474;2023-12-28T06:56:25;4.10;99.90
31975;DHT22;18500;43.618;1.474;2023-12-28T06:58:50;4.10;99.90
31975;DHT22;18500;43.618;1.474;2023-12-28T07:01:16;4.10;99.90
31975;DHT22;18500;43.618;1.474;2023-12-28T07:03:42;4.20;99.90
31975;DHT22;18500;43.618;1.474;2023-12-28T07:06:08;4.20;99.90
31975;DHT22;18500;43.618;1.474;2023-12-28T07:08:33;4.20;99.90
31975;DHT22;18500;43.618;1.474;2023-12-28T07:10:59;4.30;99.90
31975;DHT22;18500;43.618;1.474;2023-12-28T07:13:25;4.40;99.90
31975;DHT22;18500;43.618;1.474;2023-12-28T07:15:51;4.50;99.90
31975;DHT22;18500;43.618;1.474;2023-12-28T07:18:17;4.70;99.90
31975;DHT22;18500;43.618;1.474;2023-12-28T07:20:42;4.70;99.90
31975;DHT22;18500;43.618;1.474;2023-12-28T07:23:08;4.70;99.90
31975;DHT22;18500;43.618;1.474;2023-12-28T07:25:37;4.80;99.90
31975;DHT22;18500;43.618;1.474;2023-12-28T07:28:02;4.80;99.90
31975;DHT22;18500;43.618;1.474;2023-12-28T07:30:28;4.80;99.90
31975;DHT22;18500;43.618;1.474;2023-12-28T07:32:55;4.90;99.90
31975;DHT22;18500;43.618;1.474;2023-12-28T07:35:20;5.00;99.90
31975;DHT22;18500;43.618;1.474;2023-12-28T07:37:46;5.10;99.90
31975;DHT22;18500;43.618;1.474;2023-12-28T07:40:12;5.10;99.90
31975;DHT22;18500;43.618;1.474;2023-12-28T07:42:38;5.30;99.90
31975;DHT22;18500;43.618;1.474;2023-12-28T07:45:04;5.40;99.90
31975;DHT22;18500;43.618;1.474;2023-12-28T07:47:30;5.70;99.90
31975;DHT22;18500;43.618;1.474;2023-12-28T07:49:56;5.80;99.90
31975;DHT22;18500;43.618;1.474;2023-12-28T07:52:22;6.00;99.90
31975;DHT22;18500;43.618;1.474;2023-12-28T07:54:47;6.20;99.90
31975;DHT22;18500;43.618;1.474;2023-12-28T07:57:13;6.40;99.90
31975;DHT22;18500;43.618;1.474;2023-12-28T07:59:39;6.60;99.90
31975;DHT22;18500;43.618;1.474;2023-12-28T08:02:05;6.70;99.90
31975;DHT22;18500;43.618;1.474;2023-12-28T08:04:30;6.70;99.90
31975;DHT22;18500;43.618;1.474;2023-12-28T08:06:57;6.80;99.90
31975;DHT22;18500;43.618;1.474;2023-12-28T08:09:23;6.90;99.90
31975;DHT22;18500;43.618;1.474;2023-12-28T08:11:49;6.90;99.90
31975;DHT22;18500;43.618;1.474;2023-12-28T08:14:15;6.90;99.90
31975;DHT22;18500;43.618;1.474;2023-12-28T08:16:41;7.00;99.90
31975;DHT22;18500;43.618;1.474;2023-12-28T08:19:06;7.10;99.90
31975;DHT22;18500;43.618;1.474;2023-12-28T08:21:32;7.20;99.90
31975;DHT22;18500;43.618;1.474;2023-12-28T08:23:57;7.30;99.90
31975;DHT22;18500;43.618;1.474;2023-12-28T08:26:23;7.30;99.90
31975;DHT22;18500;43.618;1.474;2023-12-28T08:28:49;7.40;99.90
31975;DHT22;18500;43.618;1.474;2023-12-28T08:31:15;7.40;99.90
31975;DHT22;18500;43.618;1.474;2023-12-28T08:33:40;7.50;99.90
31975;DHT22;18500;43.618;1.474;2023-12-28T08:36:07;7.60;99.90
31975;DHT22;18500;43.618;1.474;2023-12-28T08:38:32;7.60;99.90
31975;DHT22;18500;43.618;1.474;2023-12-28T08:40:58;7.60;99.90
31975;DHT22;18500;43.618;1.474;2023-12-28T08:43:24;7.70;99.90
31975;DHT22;18500;43.618;1.474;2023-12-28T08:45:49;7.80;99.90
31975;DHT22;18500;43.618;1.474;2023-12-28T08:48:15;7.80;99.90
31975;DHT22;18500;43.618;1.474;2023-12-28T08:50:41;7.80;99.90
31975;DHT22;18500;43.618;1.474;2023-12-28T08:53:06;7.80;99.90
31975;DHT22;18500;43.618;1.474;2023-12-28T08:55:32;7.80;99.90
31975;DHT22;18500;43.618;1.474;2023-12-28T08:57:59;8.00;99.90
31975;DHT22;18500;43.618;1.474;2023-12-28T09:00:24;8.00;99.90
31975;DHT22;18500;43.618;1.474;2023-12-28T09:02:50;8.10;99.90
31975;DHT22;18500;43.618;1.474;2023-12-28T09:05:17;8.20;99.50
31975;DHT22;18500;43.618;1.474;2023-12-28T09:07:43;8.20;98.80
31975;DHT22;18500;43.618;1.474;2023-12-28T09:10:10;8.30;96.80
31975;DHT22;18500;43.618;1.474;2023-12-28T09:12:36;8.40;96.00
31975;DHT22;18500;43.618;1.474;2023-12-28T09:15:02;8.50;93.90
31975;DHT22;18500;43.618;1.474;2023-12-28T09:17:28;8.60;92.30
31975;DHT22;18500;43.618;1.474;2023-12-28T09:19:53;8.70;91.40
31975;DHT22;18500;43.618;1.474;2023-12-28T09:22:19;8.80;88.70
31975;DHT22;18500;43.618;1.474;2023-12-28T09:24:45;8.70;86.30
31975;DHT22;18500;43.618;1.474;2023-12-28T09:27:10;8.90;82.50
31975;DHT22;18500;43.618;1.474;2023-12-28T09:29:36;9.00;76.80
31975;DHT22;18500;43.618;1.474;2023-12-28T09:32:02;9.10;74.10
31975;DHT22;18500;43.618;1.474;2023-12-28T09:34:28;9.10;70.60
31975;DHT22;18500;43.618;1.474;2023-12-28T09:36:53;9.20;67.50
31975;DHT22;18500;43.618;1.474;2023-12-28T09:39:19;9.30;64.50
31975;DHT22;18500;43.618;1.474;2023-12-28T09:41:51;9.30;61.70
31975;DHT22;18500;43.618;1.474;2023-12-28T09:44:19;9.30;59.60
31975;DHT22;18500;43.618;1.474;2023-12-28T09:46:45;9.30;58.30
31975;DHT22;18500;43.618;1.474;2023-12-28T09:49:11;9.40;56.20
31975;DHT22;18500;43.618;1.474;2023-12-28T09:51:37;9.40;54.90
31975;DHT22;18500;43.618;1.474;2023-12-28T09:54:06;9.40;52.30
31975;DHT22;18500;43.618;1.474;2023-12-28T09:56:32;9.60;51.10
31975;DHT22;18500;43.618;1.474;2023-12-28T09:58:59;9.70;47.60
31975;DHT22;18500;43.618;1.474;2023-12-28T10:01:25;9.80;44.30
31975;DHT22;18500;43.618;1.474;2023-12-28T10:03:51;9.80;41.80
31975;DHT22;18500;43.618;1.474;2023-12-28T10:06:17;9.90;41.20
31975;DHT22;18500;43.618;1.474;2023-12-28T10:08:49;9.90;37.10
31975;DHT22;18500;43.618;1.474;2023-12-28T10:11:18;10.00;37.00
31975;DHT22;18500;43.618;1.474;2023-12-28T10:13:45;10.00;34.50
31975;DHT22;18500;43.618;1.474;2023-12-28T10:16:11;10.10;32.00
31975;DHT22;18500;43.618;1.474;2023-12-28T10:18:43;10.10;31.00
31975;DHT22;18500;43.618;1.474;2023-12-28T10:21:10;10.10;29.40
31975;DHT22;18500;43.618;1.474;2023-12-28T10:23:35;10.10;27.00
31975;DHT22;18500;43.618;1.474;2023-12-28T10:26:03;10.20;25.40
31975;DHT22;18500;43.618;1.474;2023-12-28T10:28:34;10.30;23.90
31975;DHT22;18500;43.618;1.474;2023-12-28T10:31:00;10.30;22.60
31975;DHT22;18500;43.618;1.474;2023-12-28T10:33:26;10.30;21.90
31975;DHT22;18500;43.618;1.474;2023-12-28T10:35:52;10.40;18.50
31975;DHT22;18500;43.618;1.474;2023-12-28T10:38:19;10.40;20.30
31975;DHT22;18500;43.618;1.474;2023-12-28T10:40:45;10.40;18.90
31975;DHT22;18500;43.618;1.474;2023-12-28T10:43:15;10.50;16.90
31975;DHT22;18500;43.618;1.474;2023-12-28T10:45:42;10.60;16.00
31975;DHT22;18500;43.618;1.474;2023-12-28T10:48:11;10.60;14.40
31975;DHT22;18500;43.618;1.474;2023-12-28T10:50:48;10.60;13.10
31975;DHT22;18500;43.618;1.474;2023-12-28T10:59:13;10.70;10.00
31975;DHT22;18500;43.618;1.474;2023-12-28T11:01:38;10.80;9.20
31975;DHT22;18500;43.618;1.474;2023-12-28T11:06:46;10.80;7.10
31975;DHT22;18500;43.618;1.474;2023-12-28T11:09:13;10.90;7.50
31975;DHT22;18500;43.618;1.474;2023-12-28T11:11:44;10.90;6.80
31975;DHT22;18500;43.618;1.474;2023-12-28T11:14:12;10.90;5.40
31975;DHT22;18500;43.618;1.474;2023-12-28T11:16:38;10.90;5.10
31975;DHT22;18500;43.618;1.474;2023-12-28T11:19:07;10.90;3.90
31975;DHT22;18500;43.618;1.474;2023-12-28T11:21:33;11.00;4.10
31975;DHT22;18500;43.618;1.474;2023-12-28T11:24:00;11.00;3.10
31975;DHT22;18500;43.618;1.474;2023-12-28T11:26:26;11.10;3.40
31975;DHT22;18500;43.618;1.474;2023-12-28T11:29:03;11.10;4.90
31975;DHT22;18500;43.618;1.474;2023-12-28T11:31:33;11.20;4.00
31975;DHT22;18500;43.618;1.474;2023-12-28T11:34:00;11.20;4.60
31975;DHT22;18500;43.618;1.474;2023-12-28T11:36:35;11.20;2.80
31975;DHT22;18500;43.618;1.474;2023-12-28T11:39:03;11.20;1.40
31975;DHT22;18500;43.618;1.474;2023-12-28T11:41:35;11.20;1.00
31975;DHT22;18500;43.618;1.474;2023-12-28T11:44:02;11.20;1.00
31975;DHT22;18500;43.618;1.474;2023-12-28T11:46:30;11.20;1.00
31975;DHT22;18500;43.618;1.474;2023-12-28T11:49:06;11.20;1.00
31975;DHT22;18500;43.618;1.474;2023-12-28T11:51:38;11.20;1.00
31975;DHT22;18500;43.618;1.474;2023-12-28T11:54:05;11.20;1.00
31975;DHT22;18500;43.618;1.474;2023-12-28T11:56:31;11.20;1.00
31975;DHT22;18500;43.618;1.474;2023-12-28T11:58:59;11.20;1.00
31975;DHT22;18500;43.618;1.474;2023-12-28T12:01:25;11.20;1.00
31975;DHT22;18500;43.618;1.474;2023-12-28T12:03:50;11.20;5.90
31975;DHT22;18500;43.618;1.474;2023-12-28T12:06:16;11.20;1.00
31975;DHT22;18500;43.618;1.474;2023-12-28T12:08:47;11.20;1.00
31975;DHT22;18500;43.618;1.474;2023-12-28T12:11:17;11.20;1.00
31975;DHT22;18500;43.618;1.474;2023-12-28T12:13:45;11.30;1.00
31975;DHT22;18500;43.618;1.474;2023-12-28T12:16:13;11.30;1.00
31975;DHT22;18500;43.618;1.474;2023-12-28T12:18:39;11.40;1.00
31975;DHT22;18500;43.618;1.474;2023-12-28T12:21:05;11.40;1.00
31975;DHT22;18500;43.618;1.474;2023-12-28T12:23:31;11.40;1.00
31975;DHT22;18500;43.618;1.474;2023-12-28T12:25:57;11.40;1.00
31975;DHT22;18500;43.618;1.474;2023-12-28T12:28:23;11.40;1.00
31975;DHT22;18500;43.618;1.474;2023-12-28T12:30:53;11.30;1.00
31975;DHT22;18500;43.618;1.474;2023-12-28T12:33:21;11.40;1.00
31975;DHT22;18500;43.618;1.474;2023-12-28T12:35:47;11.40;1.00
31975;DHT22;18500;43.618;1.474;2023-12-28T12:38:13;11.40;1.00
31975;DHT22;18500;43.618;1.474;2023-12-28T12:40:38;11.40;1.00
31975;DHT22;18500;43.618;1.474;2023-12-28T12:43:06;11.40;1.00
31975;DHT22;18500;43.618;1.474;2023-12-28T12:45:34;11.40;1.00
31975;DHT22;18500;43.618;1.474;2023-12-28T12:48:02;11.40;1.00
31975;DHT22;18500;43.618;1.474;2023-12-28T12:50:29;11.40;1.00
31975;DHT22;18500;43.618;1.474;2023-12-28T12:52:55;11.40;1.00
31975;DHT22;18500;43.618;1.474;2023-12-28T12:55:21;11.40;1.00
31975;DHT22;18500;43.618;1.474;2023-12-28T12:57:48;11.40;1.00
31975;DHT22;18500;43.618;1.474;2023-12-28T13:00:13;11.30;1.00
31975;DHT22;18500;43.618;1.474;2023-12-28T13:02:39;11.30;1.00
31975;DHT22;18500;43.618;1.474;2023-12-28T13:05:05;11.20;1.00
31975;DHT22;18500;43.618;1.474;2023-12-28T13:07:31;11.20;1.00
31975;DHT22;18500;43.618;1.474;2023-12-28T13:09:57;11.20;1.00
31975;DHT22;18500;43.618;1.474;2023-12-28T13:12:23;11.20;1.00
31975;DHT22;18500;43.618;1.474;2023-12-28T13:14:49;11.20;1.00
31975;DHT22;18500;43.618;1.474;2023-12-28T13:17:15;11.10;1.00
31975;DHT22;18500;43.618;1.474;2023-12-28T13:19:42;11.10;1.00
31975;DHT22;18500;43.618;1.474;2023-12-28T13:22:07;11.10;1.00
31975;DHT22;18500;43.618;1.474;2023-12-28T13:24:33;11.10;1.00
31975;DHT22;18500;43.618;1.474;2023-12-28T13:26:59;11.20;1.00
31975;DHT22;18500;43.618;1.474;2023-12-28T13:29:26;11.20;1.00
31975;DHT22;18500;43.618;1.474;2023-12-28T13:31:51;11.20;1.00
31975;DHT22;18500;43.618;1.474;2023-12-28T13:34:17;11.20;1.00
31975;DHT22;18500;43.618;1.474;2023-12-28T13:36:46;11.20;1.00
31975;DHT22;18500;43.618;1.474;2023-12-28T13:39:12;11.20;1.00
31975;DHT22;18500;43.618;1.474;2023-12-28T13:41:40;11.20;1.00
31975;DHT22;18500;43.618;1.474;2023-12-28T13:44:06;11.10;1.00
31975;DHT22;18500;43.618;1.474;2023-12-28T13:46:36;11.20;1.00
31975;DHT22;18500;43.618;1.474;2023-12-28T13:49:02;11.20;1.00
31975;DHT22;18500;43.618;1.474;2023-12-28T13:51:30;11.20;1.00
31975;DHT22;18500;43.618;1.474;2023-12-28T13:53:55;11.10;1.00
31975;DHT22;18500;43.618;1.474;2023-12-28T13:56:21;11.10;1.00
31975;DHT22;18500;43.618;1.474;2023-12-28T13:58:47;11.20;1.00
31975;DHT22;18500;43.618;1.474;2023-12-28T14:01:12;11.20;1.00
31975;DHT22;18500;43.618;1.474;2023-12-28T14:03:38;11.20;1.00
31975;DHT22;18500;43.618;1.474;2023-12-28T14:06:04;11.20;1.00
31975;DHT22;18500;43.618;1.474;2023-12-28T14:08:30;11.20;1.00
31975;DHT22;18500;43.618;1.474;2023-12-28T14:10:56;11.10;1.00
31975;DHT22;18500;43.618;1.474;2023-12-28T14:13:22;11.10;1.00
31975;DHT22;18500;43.618;1.474;2023-12-28T14:15:48;11.10;1.00
31975;DHT22;18500;43.618;1.474;2023-12-28T14:18:13;11.10;1.00
31975;DHT22;18500;43.618;1.474;2023-12-28T14:20:39;11.10;1.00
31975;DHT22;18500;43.618;1.474;2023-12-28T14:23:05;11.00;1.00
31975;DHT22;18500;43.618;1.474;2023-12-28T14:25:31;11.10;1.00
31975;DHT22;18500;43.618;1.474;2023-12-28T14:27:57;11.10;1.00
31975;DHT22;18500;43.618;1.474;2023-12-28T14:30:23;11.10;1.00
31975;DHT22;18500;43.618;1.474;2023-12-28T14:32:49;11.00;1.00
31975;DHT22;18500;43.618;1.474;2023-12-28T14:35:15;11.00;1.00
31975;DHT22;18500;43.618;1.474;2023-12-28T14:37:45;11.00;1.00
31975;DHT22;18500;43.618;1.474;2023-12-28T14:40:11;11.00;1.00
31975;DHT22;18500;43.618;1.474;2023-12-28T14:42:40;11.00;1.00
31975;DHT22;18500;43.618;1.474;2023-12-28T14:45:06;11.00;1.00
31975;DHT22;18500;43.618;1.474;2023-12-28T14:47:32;11.10;1.00
31975;DHT22;18500;43.618;1.474;2023-12-28T14:49:58;11.00;1.00
31975;DHT22;18500;43.618;1.474;2023-12-28T14:52:25;11.10;1.00
31975;DHT22;18500;43.618;1.474;2023-12-28T14:54:50;11.00;1.00
31975;DHT22;18500;43.618;1.474;2023-12-28T14:57:17;11.00;1.00
31975;DHT22;18500;43.618;1.474;2023-12-28T14:59:42;11.00;1.00
31975;DHT22;18500;43.618;1.474;2023-12-28T15:02:08;10.90;1.00
31975;DHT22;18500;43.618;1.474;2023-12-28T15:04:34;10.90;1.00
31975;DHT22;18500;43.618;1.474;2023-12-28T15:07:00;10.90;1.00
31975;DHT22;18500;43.618;1.474;2023-12-28T15:09:25;10.90;1.00
31975;DHT22;18500;43.618;1.474;2023-12-28T15:11:51;10.90;1.00
31975;DHT22;18500;43.618;1.474;2023-12-28T15:14:17;10.90;1.00
31975;DHT22;18500;43.618;1.474;2023-12-28T15:16:43;10.80;1.00
31975;DHT22;18500;43.618;1.474;2023-12-28T15:19:10;10.80;1.00
31975;DHT22;18500;43.618;1.474;2023-12-28T15:21:36;10.70;1.00
31975;DHT22;18500;43.618;1.474;2023-12-28T15:24:02;10.60;1.00
31975;DHT22;18500;43.618;1.474;2023-12-28T15:26:29;10.60;1.00
31975;DHT22;18500;43.618;1.474;2023-12-28T15:28:54;10.60;1.00
31975;DHT22;18500;43.618;1.474;2023-12-28T15:31:20;10.50;1.00
31975;DHT22;18500;43.618;1.474;2023-12-28T15:33:46;10.50;1.00
31975;DHT22;18500;43.618;1.474;2023-12-28T15:36:12;10.60;1.00
31975;DHT22;18500;43.618;1.474;2023-12-28T15:38:37;10.60;1.00
31975;DHT22;18500;43.618;1.474;2023-12-28T15:41:03;10.60;1.00
31975;DHT22;18500;43.618;1.474;2023-12-28T15:43:29;10.50;1.00
31975;DHT22;18500;43.618;1.474;2023-12-28T15:45:55;10.40;1.00
31975;DHT22;18500;43.618;1.474;2023-12-28T15:48:20;10.30;1.00